createdAt,value
2022-10-23T00:00:19.707Z,101463.56
2022-10-23T00:03:44.460Z,101464.66
2022-10-23T00:07:05.856Z,101470.16
2022-10-23T00:10:29.387Z,101472.22
2022-10-23T00:13:54.849Z,101472.38
2022-10-23T00:17:16.217Z,101473.34
2022-10-23T00:20:37.653Z,101478.22
2022-10-23T00:23:59.479Z,101485.66
2022-10-23T00:27:21.269Z,101487.59
2022-10-23T00:30:44.595Z,101486.03
2022-10-23T00:34:08.392Z,101483.25
2022-10-23T00:37:30.385Z,101488.31
2022-10-23T00:40:52.547Z,101493.69
2022-10-23T00:44:47.611Z,101484.41
2022-10-23T00:48:10.954Z,101480.41
2022-10-23T00:51:37.201Z,101474.78
2022-10-23T00:54:59.371Z,101484.25
2022-10-23T00:58:22.231Z,101485.81
2022-10-23T01:01:43.977Z,101479.22
2022-10-23T01:05:08.940Z,101485.16
2022-10-23T01:08:36.418Z,101485.75
2022-10-23T01:12:02.224Z,101491.69
2022-10-23T01:15:30.466Z,101489.63
2022-10-23T01:18:56.410Z,101491.03
2022-10-23T01:22:38.828Z,101492.63
2022-10-23T01:26:11.320Z,101496.72
2022-10-23T01:29:40.384Z,101502.66
2022-10-23T01:33:07.852Z,101495.34
2022-10-23T01:36:40.840Z,101498.72
2022-10-23T01:40:06.426Z,101500.19
2022-10-23T01:43:33.700Z,101505.44
2022-10-23T01:46:58.770Z,101507.84
2022-10-23T01:50:25.177Z,101508.56
2022-10-23T01:53:59.217Z,101504.78
2022-10-23T01:57:23.405Z,101509.00
2022-10-23T02:00:46.664Z,101502.66
2022-10-23T02:04:12.736Z,101507.03
2022-10-23T02:07:35.156Z,101506.06
2022-10-23T02:11:06.888Z,101500.72
2022-10-23T02:14:37.581Z,101507.75
2022-10-23T02:18:09.583Z,101509.59
2022-10-23T02:21:40.121Z,101508.75
2022-10-23T02:25:10.070Z,101503.66
2022-10-23T02:28:41.378Z,101497.72
2022-10-23T02:32:04.794Z,101501.50
2022-10-23T02:35:27.049Z,101497.28
2022-10-23T02:38:59.329Z,101496.69
2022-10-23T02:42:24.982Z,101499.38
2022-10-23T02:45:55.101Z,101496.78
2022-10-23T02:49:21.085Z,101493.38
2022-10-23T02:52:52.251Z,101506.91
2022-10-23T02:56:21.712Z,101509.59
2022-10-23T02:59:46.454Z,101501.56
2022-10-23T03:03:14.449Z,101503.78
2022-10-23T03:06:36.817Z,101509.97
2022-10-23T03:09:58.248Z,101508.25
2022-10-23T03:13:21.708Z,101509.25
2022-10-23T03:16:43.703Z,101510.94
2022-10-23T03:20:05.789Z,101511.09
2022-10-23T03:23:27.342Z,101509.50
2022-10-23T03:26:49.130Z,101507.81
2022-10-23T03:30:13.339Z,101511.59
2022-10-23T03:33:35.546Z,101506.50
2022-10-23T03:37:06.537Z,101512.97
2022-10-23T03:40:28.273Z,101509.69
2022-10-23T03:43:50.013Z,101511.78
2022-10-23T03:47:12.874Z,101515.66
2022-10-23T03:50:37.039Z,101524.94
2022-10-23T03:54:00.208Z,101518.16
2022-10-23T03:57:21.621Z,101523.75
2022-10-23T04:04:12.423Z,101525.50
2022-10-23T04:07:36.524Z,101534.59
2022-10-23T04:10:58.811Z,101528.53
2022-10-23T04:14:29.443Z,101534.38
2022-10-23T04:17:51.371Z,101524.94
2022-10-23T04:21:15.649Z,101524.56
2022-10-23T04:24:36.842Z,101523.13
2022-10-23T04:27:58.487Z,101530.56
2022-10-23T04:31:20.115Z,101526.44
2022-10-23T04:34:41.782Z,101529.47
2022-10-23T04:38:04.889Z,101528.03
2022-10-23T04:41:26.649Z,101538.09
2022-10-23T04:44:48.388Z,101534.97
2022-10-23T04:48:10.316Z,101538.84
2022-10-23T04:51:49.661Z,101537.41
2022-10-23T04:55:30.692Z,101546.75
2022-10-23T04:59:06.713Z,101543.72
2022-10-23T05:02:28.885Z,101531.81
2022-10-23T05:05:50.563Z,101537.59
2022-10-23T05:09:30.611Z,101538.09
2022-10-23T05:13:06.203Z,101534.94
2022-10-23T05:16:37.967Z,101526.56
2022-10-23T05:20:02.910Z,101533.34
2022-10-23T05:23:26.335Z,101528.34
2022-10-23T05:26:52.895Z,101528.00
2022-10-23T05:30:17.185Z,101518.63
2022-10-23T05:33:41.008Z,101518.97
2022-10-23T05:37:03.493Z,101517.66
2022-10-23T05:40:30.268Z,101520.78
2022-10-23T05:43:57.844Z,101522.94
2022-10-23T05:47:40.266Z,101519.91
2022-10-23T05:51:24.998Z,101523.16
2022-10-23T05:55:11.525Z,101517.41
2022-10-23T05:58:43.252Z,101521.41
2022-10-23T06:02:40.318Z,101535.22
2022-10-23T06:06:15.522Z,101539.16
2022-10-23T06:09:42.964Z,101538.03
2022-10-23T06:13:05.207Z,101548.91
2022-10-23T06:16:28.285Z,101551.81
2022-10-23T06:19:51.306Z,101546.81
2022-10-23T06:23:13.406Z,101540.88
2022-10-23T06:26:54.290Z,101535.88
2022-10-23T06:30:27.074Z,101532.59
2022-10-23T06:33:50.723Z,101531.72
2022-10-23T06:37:13.913Z,101527.38
2022-10-23T06:40:54.329Z,101532.81
2022-10-23T06:44:23.900Z,101530.25
2022-10-23T06:47:54.107Z,101538.88
2022-10-23T06:51:34.719Z,101541.31
2022-10-23T06:54:59.365Z,101534.16
2022-10-23T06:58:28.641Z,101536.00
2022-10-23T07:02:03.391Z,101542.06
2022-10-23T07:05:25.750Z,101543.53
2022-10-23T07:08:48.410Z,101550.44
2022-10-23T07:12:36.683Z,101558.84
2022-10-23T07:20:09.821Z,101572.94
2022-10-23T07:23:32.025Z,101572.63
2022-10-23T07:26:54.668Z,101572.41
2022-10-23T07:30:22.663Z,101577.50
2022-10-23T07:33:48.915Z,101572.81
2022-10-23T07:37:13.868Z,101559.25
2022-10-23T07:40:36.939Z,101556.34
2022-10-23T07:43:59.463Z,101548.84
2022-10-23T07:47:24.285Z,101550.22
2022-10-23T07:50:47.020Z,101556.63
2022-10-23T07:54:11.063Z,101559.69
2022-10-23T07:57:51.660Z,101551.97
2022-10-23T08:01:34.604Z,101549.44
2022-10-23T08:04:58.040Z,101554.31
2022-10-23T08:08:29.779Z,101543.91
2022-10-23T08:11:58.259Z,101552.28
2022-10-23T08:15:22.981Z,101541.97
2022-10-23T08:18:54.319Z,101537.84
2022-10-23T08:22:22.797Z,101540.06
2022-10-23T08:25:48.443Z,101537.78
2022-10-23T08:29:12.811Z,101540.66
2022-10-23T08:32:56.024Z,101548.09
2022-10-23T08:36:19.660Z,101542.13
2022-10-23T08:39:43.298Z,101540.66
2022-10-23T08:43:18.803Z,101548.28
2022-10-23T08:47:01.709Z,101544.41
2022-10-23T08:51:01.107Z,101535.91
2022-10-23T08:54:27.607Z,101542.56
2022-10-23T08:58:00.456Z,101540.25
2022-10-23T09:01:32.455Z,101541.56
2022-10-23T09:04:56.510Z,101539.94
2022-10-23T09:08:33.553Z,101538.25
2022-10-23T09:12:05.153Z,101537.59
2022-10-23T09:15:32.491Z,101543.75
2022-10-23T09:18:56.210Z,101524.94
2022-10-23T09:22:18.200Z,101531.63
2022-10-23T09:25:43.803Z,101522.97
2022-10-23T09:29:19.569Z,101516.84
2022-10-23T09:32:47.862Z,101528.19
2022-10-23T09:36:19.778Z,101526.56
2022-10-23T09:43:28.428Z,101542.75
2022-10-23T09:47:01.581Z,101538.13
2022-10-23T09:50:25.070Z,101537.78
2022-10-23T09:53:54.765Z,101540.06
2022-10-23T09:57:23.890Z,101538.28
2022-10-23T10:00:52.276Z,101539.00
2022-10-23T10:04:38.270Z,101537.91
2022-10-23T10:08:22.626Z,101536.25
2022-10-23T10:11:50.314Z,101534.28
2022-10-23T10:15:22.265Z,101534.44
2022-10-23T10:18:57.315Z,101516.53
2022-10-23T10:22:32.385Z,101523.56
2022-10-23T10:26:03.379Z,101513.81
2022-10-23T10:29:43.175Z,101504.06
2022-10-23T10:33:16.029Z,101506.03
2022-10-23T10:36:48.847Z,101504.47
2022-10-23T10:40:21.970Z,101500.06
2022-10-23T10:43:55.824Z,101498.78
2022-10-23T10:47:24.417Z,101483.09
2022-10-23T10:50:52.535Z,101471.75
2022-10-23T10:54:37.693Z,101467.47
2022-10-23T10:58:05.385Z,101465.19
2022-10-23T11:01:34.301Z,101455.75
2022-10-23T11:05:04.064Z,101453.31
2022-10-23T11:08:44.526Z,101452.00
2022-10-23T11:12:27.412Z,101448.72
2022-10-23T11:19:25.236Z,101450.19
2022-10-23T11:22:56.697Z,101440.84
2022-10-23T11:26:42.827Z,101432.88
2022-10-23T11:30:24.102Z,101427.72
2022-10-23T11:34:06.499Z,101420.59
2022-10-23T11:37:30.828Z,101421.66
2022-10-23T11:40:57.088Z,101414.97
2022-10-23T11:44:29.485Z,101408.28
2022-10-23T11:47:59.511Z,101407.69
2022-10-23T11:51:31.515Z,101402.81
2022-10-23T11:55:07.402Z,101404.19
2022-10-23T11:58:41.858Z,101400.06
2022-10-23T12:02:22.878Z,101395.03
2022-10-23T12:05:46.244Z,101388.03
2022-10-23T12:09:23.836Z,101384.03
2022-10-23T12:12:57.501Z,101379.03
2022-10-23T12:16:20.175Z,101374.72
2022-10-23T12:19:51.459Z,101365.31
2022-10-23T12:23:37.211Z,101360.31
2022-10-23T12:27:09.163Z,101362.53
2022-10-23T12:30:47.666Z,101361.34
2022-10-23T12:34:24.286Z,101352.63
2022-10-23T12:38:01.077Z,101348.28
2022-10-23T12:41:28.512Z,101341.75
2022-10-23T12:45:00.516Z,101337.91
2022-10-23T12:48:27.744Z,101331.84
2022-10-23T12:51:57.952Z,101335.22
2022-10-23T12:55:20.309Z,101318.56
2022-10-23T12:58:48.975Z,101324.47
2022-10-23T13:02:22.998Z,101307.84
2022-10-23T13:05:46.378Z,101309.00
2022-10-23T13:09:20.709Z,101298.56
2022-10-23T13:12:57.980Z,101305.50
2022-10-23T13:16:21.677Z,101304.16
2022-10-23T13:19:43.252Z,101295.59
2022-10-23T13:23:17.925Z,101289.00
2022-10-23T13:26:45.127Z,101299.44
2022-10-23T13:30:31.122Z,101293.72
2022-10-23T13:34:05.395Z,101288.19
2022-10-23T13:37:30.891Z,101286.88
2022-10-23T13:40:59.226Z,101282.16
2022-10-23T13:44:23.019Z,101279.13
2022-10-23T13:47:45.210Z,101278.97
2022-10-23T13:51:13.675Z,101270.69
2022-10-23T13:54:35.114Z,101262.59
2022-10-23T13:57:59.392Z,101261.94
2022-10-23T14:01:24.305Z,101257.56
2022-10-23T14:04:46.350Z,101253.16
2022-10-23T14:08:08.440Z,101256.88
2022-10-23T14:11:30.770Z,101258.75
2022-10-23T14:14:54.249Z,101256.22
2022-10-23T14:18:16.222Z,101253.50
2022-10-23T14:21:38.069Z,101245.63
2022-10-23T14:24:59.401Z,101242.06
2022-10-23T14:28:21.669Z,101233.97
2022-10-23T14:31:44.307Z,101235.84
2022-10-23T14:35:06.772Z,101227.91
2022-10-23T14:38:28.669Z,101222.53
2022-10-23T14:41:50.254Z,101221.16
2022-10-23T14:45:12.116Z,101233.09
2022-10-23T14:48:37.637Z,101227.22
2022-10-23T14:51:59.161Z,101226.88
2022-10-23T14:55:20.684Z,101224.00
2022-10-23T14:58:43.387Z,101222.13
2022-10-23T15:02:05.157Z,101207.66
2022-10-23T15:05:28.213Z,101214.72
2022-10-23T15:08:50.721Z,101218.06
2022-10-23T15:12:12.267Z,101212.66
2022-10-23T15:15:33.612Z,101205.41
2022-10-23T15:18:55.441Z,101206.22
2022-10-23T15:22:19.538Z,101205.19
2022-10-23T15:25:42.050Z,101198.63
2022-10-23T15:29:03.890Z,101199.13
2022-10-23T15:32:25.354Z,101192.69
2022-10-23T15:35:46.999Z,101193.31
2022-10-23T15:39:11.813Z,101181.38
2022-10-23T15:42:33.591Z,101182.16
2022-10-23T15:45:54.917Z,101172.06
2022-10-23T15:49:16.549Z,101153.88
2022-10-23T15:52:38.015Z,101159.88
2022-10-23T15:56:01.094Z,101157.69
2022-10-23T15:59:24.500Z,101161.84
2022-10-23T16:02:46.437Z,101169.56
2022-10-23T16:06:10.641Z,101175.41
2022-10-23T16:09:35.020Z,101172.34
2022-10-23T16:12:58.009Z,101163.09
2022-10-23T16:16:19.752Z,101163.72
2022-10-23T16:19:41.536Z,101149.06
2022-10-23T16:23:02.967Z,101155.09
2022-10-23T16:26:24.808Z,101157.38
2022-10-23T16:29:47.960Z,101150.81
2022-10-23T16:33:09.596Z,101144.91
2022-10-23T16:36:31.350Z,101142.53
2022-10-23T16:40:04.989Z,101137.47
2022-10-23T16:43:44.965Z,101135.25
2022-10-23T16:47:22.212Z,101137.53
2022-10-23T16:50:43.396Z,101133.47
2022-10-23T16:54:05.348Z,101131.97
2022-10-23T16:57:27.979Z,101130.59
2022-10-23T17:00:57.022Z,101130.72
2022-10-23T17:04:20.017Z,101123.66
2022-10-23T17:07:41.903Z,101124.66
2022-10-23T17:11:08.639Z,101115.94
2022-10-23T17:14:30.087Z,101108.00
2022-10-23T17:17:51.748Z,101101.81
2022-10-23T17:21:16.054Z,101098.97
2022-10-23T17:24:37.665Z,101101.50
2022-10-23T17:27:59.199Z,101104.19
2022-10-23T17:31:22.552Z,101088.06
2022-10-23T17:34:43.745Z,101085.41
2022-10-23T17:38:06.846Z,101077.34
2022-10-23T17:41:28.626Z,101084.53
2022-10-23T17:44:50.348Z,101078.34
2022-10-23T17:48:13.041Z,101071.28
2022-10-23T17:51:36.352Z,101064.06
2022-10-23T17:54:59.124Z,101055.16
2022-10-23T17:58:20.462Z,101055.31
2022-10-23T18:01:43.877Z,101046.44
2022-10-23T18:05:06.357Z,101048.13
2022-10-23T18:08:27.946Z,101046.13
2022-10-23T18:11:51.656Z,101054.16
2022-10-23T18:15:13.144Z,101055.84
2022-10-23T18:18:35.602Z,101059.38
2022-10-23T18:21:57.583Z,101052.31
2022-10-23T18:25:19.815Z,101049.81
2022-10-23T18:28:42.551Z,101053.50
2022-10-23T18:32:04.206Z,101062.53
2022-10-23T18:35:26.193Z,101056.50
2022-10-23T18:38:47.692Z,101030.66
2022-10-23T18:42:09.322Z,101014.00
2022-10-23T18:45:32.731Z,101020.22
2022-10-23T18:48:54.708Z,101015.00
2022-10-23T18:52:16.101Z,101005.56
2022-10-23T18:55:37.556Z,101004.72
2022-10-23T18:59:00.601Z,101008.72
2022-10-23T19:02:23.773Z,101010.22
2022-10-23T19:05:46.787Z,101003.47
2022-10-23T19:09:10.351Z,100995.88
2022-10-23T19:12:31.796Z,100995.19
2022-10-23T19:15:53.799Z,100999.88
2022-10-23T19:19:20.957Z,101013.28
2022-10-23T19:22:44.356Z,101017.66
2022-10-23T19:26:08.836Z,101009.59
2022-10-23T19:29:30.997Z,101006.06
2022-10-23T19:32:52.514Z,101006.06
2022-10-23T19:36:17.554Z,100999.88
2022-10-23T19:39:40.317Z,100994.81
2022-10-23T19:43:01.904Z,100986.91
2022-10-23T19:46:23.623Z,100991.78
2022-10-23T19:49:45.612Z,101001.97
2022-10-23T19:53:08.906Z,100985.31
2022-10-23T19:56:30.183Z,100981.25
2022-10-23T19:59:52.619Z,100980.88
2022-10-23T20:03:14.455Z,100980.19
2022-10-23T20:06:37.561Z,100975.84
2022-10-23T20:10:00.922Z,100968.09
2022-10-23T20:13:23.130Z,100968.25
2022-10-23T20:16:47.099Z,100958.69
2022-10-23T20:20:09.480Z,100949.78
2022-10-23T20:23:30.926Z,100958.13
2022-10-23T20:26:56.058Z,100963.66
2022-10-23T20:30:17.633Z,100959.31
2022-10-23T20:33:40.565Z,100969.34
2022-10-23T20:37:02.169Z,100966.13
2022-10-23T20:40:23.987Z,100976.31
2022-10-23T20:43:46.823Z,100968.56
2022-10-23T20:47:08.415Z,100968.88
2022-10-23T20:50:30.362Z,100961.09
2022-10-23T20:53:54.539Z,100955.34
2022-10-23T20:57:19.161Z,100953.28
2022-10-23T21:00:44.084Z,100949.38
2022-10-23T21:04:06.231Z,100942.81
2022-10-23T21:07:27.800Z,100953.13
2022-10-23T21:10:49.225Z,100947.06
2022-10-23T21:14:10.745Z,100933.66
2022-10-23T21:17:36.004Z,100934.97
2022-10-23T21:20:57.869Z,100942.31
2022-10-23T21:24:19.275Z,100946.97
2022-10-23T21:27:40.691Z,100935.72
2022-10-23T21:31:06.999Z,100934.88
2022-10-23T21:34:30.285Z,100936.88
2022-10-23T21:37:52.058Z,100926.44
2022-10-23T21:41:15.290Z,100930.13
2022-10-23T21:44:37.160Z,100921.41
2022-10-23T21:47:58.854Z,100924.22
2022-10-23T21:51:24.588Z,100906.47
2022-10-23T21:54:46.221Z,100900.28
2022-10-23T21:58:07.962Z,100898.59
2022-10-23T22:01:30.318Z,100892.38
2022-10-23T22:04:51.759Z,100884.50
2022-10-23T22:08:14.821Z,100901.72
2022-10-23T22:11:36.706Z,100920.31
2022-10-23T22:14:58.377Z,100925.13
2022-10-23T22:18:20.094Z,100924.44
2022-10-23T22:21:41.783Z,100932.75
2022-10-23T22:25:05.567Z,100937.56
2022-10-23T22:28:27.006Z,100938.72
2022-10-23T22:31:50.128Z,100933.66
2022-10-23T22:35:11.999Z,100928.44
2022-10-23T22:38:33.255Z,100917.03
2022-10-23T22:41:56.027Z,100917.03
2022-10-23T22:45:18.024Z,100913.53
2022-10-23T22:48:39.587Z,100909.00
2022-10-23T22:52:01.232Z,100916.91
2022-10-23T22:55:22.458Z,100931.00
2022-10-23T22:58:45.858Z,100937.16
2022-10-23T23:02:08.236Z,100931.50
2022-10-23T23:05:29.975Z,100914.31
2022-10-23T23:08:52.624Z,100919.50
2022-10-23T23:12:15.513Z,100919.06
2022-10-23T23:15:41.998Z,100915.78
2022-10-23T23:19:05.546Z,100911.50
2022-10-23T23:25:53.438Z,100911.75
2022-10-23T23:29:14.679Z,100919.19
2022-10-23T23:32:37.576Z,100909.84
2022-10-23T23:35:58.976Z,100913.63
2022-10-23T23:39:20.704Z,100910.47
2022-10-23T23:42:42.756Z,100910.03
2022-10-23T23:46:04.385Z,100890.97
2022-10-23T23:49:27.608Z,100900.22
2022-10-23T23:52:49.141Z,100905.28
2022-10-23T23:56:10.993Z,100904.81
2022-10-23T23:59:36.990Z,100900.03
